createdAt,value
2022-12-08T00:00:07.849Z,1.57
2022-12-08T00:02:38.968Z,1.13
2022-12-08T00:05:24.939Z,1.15
2022-12-08T00:08:10.456Z,1.50
2022-12-08T00:10:52.543Z,1.17
2022-12-08T00:13:19.196Z,1.33
2022-12-08T00:15:45.798Z,1.75
2022-12-08T00:18:12.448Z,1.80
2022-12-08T00:20:39.074Z,1.30
2022-12-08T00:23:05.948Z,1.33
2022-12-08T00:25:36.316Z,2.07
2022-12-08T00:28:03.014Z,1.33
2022-12-08T00:30:29.685Z,1.85
2022-12-08T00:32:56.321Z,3.58
2022-12-08T00:35:22.998Z,0.80
2022-12-08T00:37:49.692Z,1.40
2022-12-08T00:40:16.259Z,1.17
2022-12-08T00:42:42.868Z,1.75
2022-12-08T00:45:09.926Z,1.25
2022-12-08T00:47:36.631Z,1.25
2022-12-08T00:50:04.358Z,1.27
2022-12-08T00:52:31.146Z,0.88
2022-12-08T00:54:57.717Z,1.33
2022-12-08T00:57:24.430Z,1.13
2022-12-08T00:59:51.008Z,1.30
2022-12-08T01:02:17.679Z,3.03
2022-12-08T01:04:44.497Z,1.95
2022-12-08T01:07:11.140Z,4.43
2022-12-08T01:09:37.949Z,1.20
2022-12-08T01:12:05.709Z,5.30
2022-12-08T01:14:32.708Z,2.07
2022-12-08T01:16:59.448Z,2.58
2022-12-08T01:19:26.217Z,1.50
2022-12-08T01:21:52.861Z,2.15
2022-12-08T01:24:21.154Z,2.47
2022-12-08T01:26:49.572Z,1.63
2022-12-08T01:29:16.563Z,1.17
2022-12-08T01:31:43.403Z,2.00
2022-12-08T01:34:14.924Z,1.77
2022-12-08T01:36:42.466Z,2.42
2022-12-08T01:39:15.208Z,2.40
2022-12-08T01:41:43.627Z,2.35
2022-12-08T01:44:10.820Z,3.08
2022-12-08T01:46:39.626Z,2.78
2022-12-08T01:49:27.108Z,1.98
2022-12-08T01:52:10.821Z,2.60
2022-12-08T01:54:44.466Z,1.58
2022-12-08T01:57:23.582Z,0.90
2022-12-08T01:59:56.972Z,0.88
2022-12-08T02:02:26.340Z,0.80
2022-12-08T02:04:53.071Z,2.00
2022-12-08T02:07:20.529Z,1.00
2022-12-08T02:09:47.705Z,1.25
2022-12-08T02:12:14.853Z,0.73
2022-12-08T02:14:41.622Z,0.88
2022-12-08T02:17:36.161Z,0.70
2022-12-08T02:20:24.557Z,1.67
2022-12-08T02:23:07.202Z,2.10
2022-12-08T02:25:51.984Z,2.50
2022-12-08T02:28:45.086Z,2.17
2022-12-08T02:31:44.253Z,2.17
2022-12-08T02:34:27.585Z,1.42
2022-12-08T02:37:02.984Z,2.03
2022-12-08T02:39:45.974Z,3.33
2022-12-08T02:42:21.269Z,1.63
2022-12-08T02:45:06.694Z,1.10
2022-12-08T02:47:34.329Z,0.85
2022-12-08T02:50:01.004Z,1.00
2022-12-08T02:52:27.751Z,0.80
2022-12-08T02:54:58.771Z,0.90
2022-12-08T02:57:44.546Z,1.10
2022-12-08T03:00:16.470Z,1.10
2022-12-08T03:03:09.440Z,1.10
2022-12-08T03:05:42.303Z,0.80
2022-12-08T03:08:19.181Z,0.98
2022-12-08T03:11:11.077Z,1.27
2022-12-08T03:13:46.301Z,1.10
2022-12-08T03:16:17.605Z,1.00
2022-12-08T03:18:49.129Z,2.60
2022-12-08T03:21:18.905Z,0.88
2022-12-08T03:23:48.260Z,0.90
2022-12-08T03:26:23.597Z,0.80
2022-12-08T03:28:50.605Z,1.45
2022-12-08T03:31:19.439Z,1.05
2022-12-08T03:33:51.815Z,1.00
2022-12-08T03:36:19.454Z,0.93
2022-12-08T03:38:46.840Z,0.90
2022-12-08T03:41:19.228Z,1.48
2022-12-08T03:43:54.891Z,1.48
2022-12-08T03:48:49.784Z,3.03
2022-12-08T03:51:17.314Z,1.17
2022-12-08T03:53:44.537Z,1.33
2022-12-08T03:56:28.421Z,1.20
2022-12-08T03:58:58.105Z,1.48
2022-12-08T04:01:25.615Z,0.97
2022-12-08T04:03:52.268Z,1.20
2022-12-08T04:06:20.094Z,1.98
2022-12-08T04:08:47.788Z,1.42
2022-12-08T04:11:14.561Z,1.92
2022-12-08T04:13:42.158Z,1.27
2022-12-08T04:16:14.680Z,1.98
2022-12-08T04:18:41.467Z,1.98
2022-12-08T04:21:08.109Z,1.67
2022-12-08T04:23:34.751Z,2.08
2022-12-08T04:26:01.356Z,1.63
2022-12-08T04:28:29.428Z,4.30
2022-12-08T04:30:56.117Z,1.48
2022-12-08T04:33:22.925Z,1.67
2022-12-08T04:35:50.094Z,1.52
2022-12-08T04:38:17.376Z,2.33
2022-12-08T04:40:45.825Z,1.20
2022-12-08T04:43:12.596Z,2.05
2022-12-08T04:45:40.461Z,1.48
2022-12-08T04:48:07.410Z,1.70
2022-12-08T04:50:34.016Z,1.77
2022-12-08T04:53:00.759Z,1.88
2022-12-08T04:55:27.349Z,1.77
2022-12-08T04:57:54.063Z,1.52
2022-12-08T05:00:20.730Z,2.67
2022-12-08T05:02:47.492Z,4.67
2022-12-08T05:05:14.184Z,2.55
2022-12-08T05:07:40.941Z,1.17
2022-12-08T05:10:08.535Z,0.80
2022-12-08T05:12:35.222Z,0.70
2022-12-08T05:15:01.941Z,4.80
2022-12-08T05:17:28.721Z,1.77
2022-12-08T05:19:55.472Z,1.17
2022-12-08T05:22:22.181Z,0.93
2022-12-08T05:24:48.822Z,1.90
2022-12-08T05:27:16.054Z,3.43
2022-12-08T05:29:42.667Z,3.13
2022-12-08T05:32:09.377Z,2.70
2022-12-08T05:34:37.499Z,3.55
2022-12-08T05:37:04.118Z,2.15
2022-12-08T05:39:31.269Z,1.40
2022-12-08T05:41:58.036Z,2.03
2022-12-08T05:44:24.609Z,2.67
2022-12-08T05:46:51.897Z,3.80
2022-12-08T05:49:18.563Z,2.95
2022-12-08T05:51:45.267Z,4.53
2022-12-08T05:54:11.898Z,5.82
2022-12-08T05:56:38.634Z,11.85
2022-12-08T05:59:07.946Z,10.35
2022-12-08T06:01:34.970Z,7.80
2022-12-08T06:04:03.859Z,2.77
2022-12-08T06:06:31.628Z,7.50
2022-12-08T06:08:58.351Z,3.58
2022-12-08T06:11:30.744Z,5.63
2022-12-08T06:13:58.467Z,3.35
2022-12-08T06:16:26.715Z,7.10
2022-12-08T06:18:54.112Z,8.10
2022-12-08T06:21:20.907Z,8.18
2022-12-08T06:23:50.444Z,7.10
2022-12-08T06:26:17.683Z,6.20
2022-12-08T06:28:44.651Z,5.37
2022-12-08T06:31:17.470Z,6.15
2022-12-08T06:33:46.008Z,8.00
2022-12-08T06:36:14.466Z,6.20
2022-12-08T06:38:43.636Z,5.32
2022-12-08T06:41:11.955Z,5.53
2022-12-08T06:43:38.990Z,7.18
2022-12-08T06:46:08.168Z,5.63
2022-12-08T06:48:34.973Z,6.65
2022-12-08T06:51:16.230Z,6.32
2022-12-08T06:53:43.821Z,3.00
2022-12-08T06:56:11.453Z,3.20
2022-12-08T06:58:38.771Z,2.65
2022-12-08T07:01:10.340Z,1.40
2022-12-08T07:03:38.323Z,2.17
2022-12-08T07:06:06.263Z,1.43
2022-12-08T07:08:34.231Z,2.45
2022-12-08T07:11:06.986Z,1.30
2022-12-08T07:13:33.707Z,28.42
2022-12-08T07:16:01.930Z,17.02
2022-12-08T07:18:29.122Z,12.33
2022-12-08T07:20:55.732Z,7.68
2022-12-08T07:23:22.402Z,14.90
2022-12-08T07:25:49.091Z,9.45
2022-12-08T07:28:15.756Z,4.40
2022-12-08T07:30:42.419Z,3.17
2022-12-08T07:33:09.135Z,6.32
2022-12-08T07:35:35.737Z,2.95
2022-12-08T07:38:02.764Z,4.88
2022-12-08T07:40:29.589Z,6.40
2022-12-08T07:42:56.285Z,21.60
2022-12-08T07:45:28.337Z,7.28
2022-12-08T07:47:58.010Z,14.52
2022-12-08T07:50:24.701Z,6.10
2022-12-08T07:52:51.316Z,6.43
2022-12-08T07:55:18.124Z,3.57
2022-12-08T07:57:44.773Z,4.75
2022-12-08T08:00:11.961Z,2.85
2022-12-08T08:02:39.872Z,2.30
2022-12-08T08:05:07.120Z,2.13
2022-12-08T08:07:34.061Z,1.60
2022-12-08T08:10:00.954Z,6.30
2022-12-08T08:12:32.051Z,3.95
2022-12-08T08:15:00.486Z,2.75
2022-12-08T08:17:27.621Z,2.83
2022-12-08T08:19:54.302Z,3.43
2022-12-08T08:22:20.941Z,3.05
2022-12-08T08:24:47.633Z,68.93
2022-12-08T08:27:14.230Z,100.10
2022-12-08T08:29:40.897Z,157.75
2022-12-08T08:32:07.497Z,20.80
2022-12-08T08:34:34.099Z,13.10
2022-12-08T08:37:00.863Z,7.68
2022-12-08T08:39:27.627Z,4.80
2022-12-08T08:41:54.189Z,2.83
2022-12-08T08:44:20.820Z,5.10
2022-12-08T08:46:47.656Z,2.97
2022-12-08T08:49:14.377Z,3.08
2022-12-08T08:51:42.037Z,5.25
2022-12-08T08:54:08.648Z,5.00
2022-12-08T08:56:35.293Z,7.63
2022-12-08T08:59:03.078Z,7.43
2022-12-08T09:01:30.331Z,8.15
2022-12-08T09:03:57.752Z,9.50
2022-12-08T09:06:25.018Z,8.90
2022-12-08T09:08:52.357Z,9.90
2022-12-08T09:11:19.040Z,7.97
2022-12-08T09:13:49.819Z,23.13
2022-12-08T09:16:18.441Z,15.48
2022-12-08T09:18:45.115Z,18.75
2022-12-08T09:21:16.453Z,15.43
2022-12-08T09:23:43.475Z,13.95
2022-12-08T09:26:10.242Z,15.55
2022-12-08T09:28:37.168Z,14.50
2022-12-08T09:31:04.267Z,12.93
2022-12-08T09:33:31.482Z,8.33
2022-12-08T09:36:02.837Z,9.55
2022-12-08T09:38:29.481Z,6.65
2022-12-08T09:40:56.380Z,8.43
2022-12-08T09:43:33.382Z,9.98
2022-12-08T09:46:02.128Z,13.90
2022-12-08T09:48:43.128Z,11.88
2022-12-08T09:51:12.187Z,17.60
2022-12-08T09:53:54.818Z,19.13
2022-12-08T09:56:24.682Z,11.55
2022-12-08T09:58:56.475Z,8.33
2022-12-08T10:01:28.840Z,5.88
2022-12-08T10:03:56.143Z,10.60
2022-12-08T10:06:48.155Z,9.68
2022-12-08T10:09:26.974Z,10.45
2022-12-08T10:11:57.029Z,8.73
2022-12-08T10:14:46.279Z,12.40
2022-12-08T10:17:25.471Z,11.18
2022-12-08T10:19:59.594Z,15.63
2022-12-08T10:22:33.727Z,11.88
2022-12-08T10:25:07.542Z,13.40
2022-12-08T10:27:36.645Z,11.88
2022-12-08T10:30:11.678Z,13.93
2022-12-08T10:32:39.265Z,13.68
2022-12-08T10:35:09.358Z,18.45
2022-12-08T10:37:36.384Z,19.07
2022-12-08T10:40:03.223Z,11.32
2022-12-08T10:42:37.501Z,11.40
2022-12-08T10:45:32.397Z,12.63
2022-12-08T10:48:05.829Z,8.60
2022-12-08T10:50:35.434Z,11.67
2022-12-08T10:53:12.797Z,12.93
2022-12-08T10:55:40.790Z,10.32
2022-12-08T10:58:35.349Z,10.80
2022-12-08T11:01:11.027Z,9.88
2022-12-08T11:03:45.966Z,10.60
2022-12-08T11:06:17.962Z,7.88
2022-12-08T11:08:54.370Z,12.80
2022-12-08T11:11:28.978Z,10.55
2022-12-08T11:13:56.434Z,8.65
2022-12-08T11:16:23.689Z,10.33
2022-12-08T11:18:57.600Z,7.60
2022-12-08T11:21:36.020Z,5.38
2022-12-08T11:24:32.278Z,6.07
2022-12-08T11:27:04.534Z,6.90
2022-12-08T11:29:33.528Z,6.93
2022-12-08T11:32:04.430Z,5.30
2022-12-08T11:34:33.662Z,13.82
2022-12-08T11:37:00.878Z,10.18
2022-12-08T11:39:32.336Z,16.58
2022-12-08T11:42:03.234Z,22.73
2022-12-08T11:44:38.762Z,14.13
2022-12-08T11:47:14.605Z,9.82
2022-12-08T11:49:42.804Z,10.23
2022-12-08T11:52:26.299Z,18.00
2022-12-08T11:55:00.969Z,19.10
2022-12-08T11:57:29.701Z,6.38
2022-12-08T11:59:58.076Z,4.07
2022-12-08T12:02:31.991Z,3.78
2022-12-08T12:05:07.975Z,5.10
2022-12-08T12:07:56.853Z,5.33
2022-12-08T12:10:26.391Z,27.90
2022-12-08T12:13:05.502Z,22.00
2022-12-08T12:15:44.385Z,38.72
2022-12-08T12:18:28.870Z,7.47
2022-12-08T12:21:07.857Z,7.93
2022-12-08T12:23:43.162Z,12.45
2022-12-08T12:26:18.958Z,5.18
2022-12-08T12:29:05.820Z,7.35
2022-12-08T12:31:41.442Z,4.40
2022-12-08T12:34:15.145Z,3.23
2022-12-08T12:36:56.437Z,5.05
2022-12-08T12:39:30.058Z,4.97
2022-12-08T12:42:01.759Z,7.40
2022-12-08T12:44:28.331Z,6.13
2022-12-08T12:47:03.316Z,4.17
2022-12-08T12:49:38.762Z,5.38
2022-12-08T12:52:31.433Z,4.07
2022-12-08T12:54:58.042Z,3.72
2022-12-08T12:57:39.779Z,3.10
2022-12-08T13:00:18.993Z,3.80
2022-12-08T13:02:49.060Z,3.78
2022-12-08T13:05:34.066Z,10.23
2022-12-08T13:08:08.211Z,5.28
2022-12-08T13:10:38.598Z,7.20
2022-12-08T13:13:12.575Z,5.67
2022-12-08T13:15:46.855Z,7.22
2022-12-08T13:18:31.980Z,7.07
2022-12-08T13:21:10.648Z,4.97
2022-12-08T13:23:37.205Z,3.03
2022-12-08T13:26:22.035Z,5.07
2022-12-08T13:29:03.995Z,2.38
2022-12-08T13:31:42.571Z,14.52
2022-12-08T13:34:23.455Z,49.17
2022-12-08T13:37:15.498Z,5.03
2022-12-08T13:39:52.193Z,5.17
2022-12-08T13:42:31.051Z,3.13
2022-12-08T13:45:39.677Z,6.32
2022-12-08T13:57:08.393Z,4.75
2022-12-08T13:59:43.893Z,8.48
2022-12-08T14:02:13.287Z,6.15
2022-12-08T14:05:16.725Z,2.63
2022-12-08T14:07:33.681Z,3.63
2022-12-08T14:10:03.525Z,2.83
2022-12-08T14:12:31.361Z,2.30
2022-12-08T14:15:05.100Z,2.20
2022-12-08T14:17:33.095Z,3.28
2022-12-08T14:20:22.679Z,2.67
2022-12-08T14:22:50.417Z,4.68
2022-12-08T14:25:18.046Z,3.17
2022-12-08T14:27:46.244Z,3.85
2022-12-08T14:30:16.115Z,5.35
2022-12-08T14:32:47.156Z,4.10
2022-12-08T14:35:30.132Z,5.90
2022-12-08T14:38:17.949Z,4.85
2022-12-08T14:40:46.888Z,4.32
2022-12-08T14:43:20.863Z,3.75
2022-12-08T14:45:50.628Z,3.53
2022-12-08T14:48:21.729Z,4.25
2022-12-08T14:50:56.864Z,5.93
2022-12-08T14:53:24.753Z,3.78
2022-12-08T14:55:52.064Z,5.05
2022-12-08T14:58:24.028Z,3.90
2022-12-08T15:00:54.612Z,3.05
2022-12-08T15:03:23.295Z,4.65
2022-12-08T15:05:56.818Z,7.90
2022-12-08T15:08:24.103Z,19.38
2022-12-08T15:11:31.648Z,18.37
2022-12-08T15:13:58.431Z,10.50
2022-12-08T15:16:36.999Z,6.60
2022-12-08T15:19:27.711Z,4.47
2022-12-08T15:21:56.901Z,4.70
2022-12-08T15:24:26.745Z,2.43
2022-12-08T15:26:54.015Z,7.07
2022-12-08T15:29:28.962Z,3.08
2022-12-08T15:31:58.734Z,5.55
2022-12-08T15:34:25.646Z,5.20
2022-12-08T15:36:54.552Z,5.03
2022-12-08T15:39:28.388Z,5.32
2022-12-08T15:41:55.541Z,5.72
2022-12-08T15:44:22.910Z,5.35
2022-12-08T15:46:50.127Z,4.88
2022-12-08T15:49:19.570Z,5.93
2022-12-08T15:51:46.484Z,6.47
2022-12-08T15:54:13.764Z,7.70
2022-12-08T15:57:10.566Z,5.72
2022-12-08T15:59:31.143Z,18.45
2022-12-08T16:01:57.978Z,6.93
2022-12-08T16:07:26.147Z,5.55
2022-12-08T16:09:53.380Z,6.70
2022-12-08T16:13:27.322Z,6.95
2022-12-08T16:18:19.028Z,5.82
2022-12-08T16:23:46.496Z,4.35
2022-12-08T16:27:01.028Z,4.22
2022-12-08T16:29:07.153Z,6.97
2022-12-08T16:31:35.274Z,4.32
2022-12-08T16:34:02.129Z,4.13
2022-12-08T16:36:28.882Z,7.07
2022-12-08T16:38:56.177Z,9.23
2022-12-08T16:41:41.657Z,7.80
2022-12-08T16:44:08.436Z,7.45
2022-12-08T16:46:35.970Z,8.70
2022-12-08T16:49:03.592Z,7.22
2022-12-08T16:51:30.164Z,11.02
2022-12-08T16:53:59.418Z,4.63
2022-12-08T16:56:32.795Z,4.28
2022-12-08T16:59:01.811Z,4.07
2022-12-08T17:01:28.525Z,4.95
2022-12-08T17:06:44.701Z,4.57
2022-12-08T17:09:11.321Z,3.55
2022-12-08T17:11:42.956Z,4.93
2022-12-08T17:14:11.077Z,4.55
2022-12-08T17:16:38.143Z,4.00
2022-12-08T17:19:05.312Z,4.87
2022-12-08T17:21:32.304Z,4.65
2022-12-08T17:23:58.996Z,5.25
2022-12-08T17:26:25.594Z,5.57
2022-12-08T17:29:00.685Z,4.65
2022-12-08T17:31:32.234Z,5.00
2022-12-08T17:39:18.781Z,3.63
2022-12-08T17:41:46.433Z,9.23
2022-12-08T17:44:16.752Z,4.28
2022-12-08T17:46:49.080Z,6.10
2022-12-08T17:49:22.389Z,4.00
2022-12-08T17:51:51.367Z,4.82
2022-12-08T17:54:19.004Z,3.20
2022-12-08T17:56:46.825Z,4.22
2022-12-08T17:59:14.168Z,3.17
2022-12-08T18:01:41.405Z,5.90
2022-12-08T18:04:09.399Z,4.28
2022-12-08T18:06:37.839Z,3.55
2022-12-08T18:09:07.830Z,4.53
2022-12-08T18:11:37.052Z,6.60
2022-12-08T18:14:10.065Z,4.75
2022-12-08T18:16:42.961Z,4.97
2022-12-08T18:19:10.860Z,7.78
2022-12-08T18:21:41.475Z,6.82
2022-12-08T18:24:09.413Z,4.73
2022-12-08T18:26:36.185Z,6.78
2022-12-08T18:29:03.182Z,4.65
2022-12-08T18:31:29.977Z,6.13
2022-12-08T18:33:56.712Z,4.05
2022-12-08T18:36:25.246Z,4.90
2022-12-08T18:38:53.030Z,6.47
2022-12-08T18:41:25.954Z,6.03
2022-12-08T18:43:55.149Z,11.77
2022-12-08T18:46:21.918Z,4.38
2022-12-08T18:48:50.688Z,3.63
2022-12-08T18:51:20.324Z,6.75
2022-12-08T18:53:47.723Z,6.75
2022-12-08T18:56:40.645Z,9.55
2022-12-08T18:59:10.900Z,10.38
2022-12-08T19:01:39.890Z,4.83
2022-12-08T19:06:57.040Z,7.40
2022-12-08T19:09:26.537Z,4.60
2022-12-08T19:11:53.279Z,6.60
2022-12-08T19:14:25.768Z,10.80
2022-12-08T19:16:54.344Z,8.43
2022-12-08T19:19:21.500Z,5.75
2022-12-08T19:21:48.239Z,5.88
2022-12-08T19:24:15.393Z,8.18
2022-12-08T19:26:42.696Z,8.37
2022-12-08T19:29:09.787Z,8.70
2022-12-08T19:31:36.556Z,5.60
2022-12-08T19:34:03.379Z,6.25
2022-12-08T19:36:35.306Z,17.38
2022-12-08T19:39:21.933Z,10.47
2022-12-08T19:42:07.376Z,4.47
2022-12-08T19:44:34.330Z,4.10
2022-12-08T19:47:01.892Z,5.90
2022-12-08T19:49:29.137Z,11.48
2022-12-08T19:51:56.355Z,21.50
2022-12-08T19:54:23.163Z,6.97
2022-12-08T19:56:50.028Z,19.83
2022-12-08T19:59:19.329Z,2.60
2022-12-08T20:01:48.059Z,4.80
2022-12-08T20:04:15.835Z,10.40
2022-12-08T20:06:42.971Z,5.90
2022-12-08T20:09:11.630Z,3.47
2022-12-08T20:11:39.393Z,6.00
2022-12-08T20:14:06.734Z,2.78
2022-12-08T20:16:33.897Z,2.40
2022-12-08T20:19:01.911Z,3.95
2022-12-08T20:21:28.975Z,2.72
2022-12-08T20:23:57.764Z,3.70
2022-12-08T20:26:24.734Z,4.50
2022-12-08T20:28:51.683Z,5.17
2022-12-08T20:31:29.828Z,5.47
2022-12-08T20:33:56.604Z,6.35
2022-12-08T20:36:23.505Z,4.95
2022-12-08T20:38:52.034Z,5.68
2022-12-08T20:41:19.925Z,2.23
2022-12-08T20:43:47.516Z,4.63
2022-12-08T20:46:16.411Z,2.53
2022-12-08T20:48:44.190Z,2.80
2022-12-08T20:51:19.426Z,1.73
2022-12-08T20:53:47.235Z,1.73
2022-12-08T20:56:18.881Z,3.53
2022-12-08T20:58:45.802Z,1.70
2022-12-08T21:01:15.000Z,1.60
2022-12-08T21:03:42.405Z,2.08
2022-12-08T21:06:10.239Z,2.53
2022-12-08T21:08:37.963Z,1.92
2022-12-08T21:11:05.954Z,2.60
2022-12-08T21:13:33.624Z,2.90
2022-12-08T21:16:00.416Z,10.57
2022-12-08T21:18:27.380Z,4.73
2022-12-08T21:21:05.009Z,2.20
2022-12-08T21:23:32.236Z,2.05
2022-12-08T21:25:59.213Z,3.28
2022-12-08T21:28:26.133Z,1.40
2022-12-08T21:30:53.008Z,3.93
2022-12-08T21:33:19.916Z,1.13
2022-12-08T21:35:46.896Z,1.33
2022-12-08T21:38:13.785Z,2.33
2022-12-08T21:40:40.651Z,1.33
2022-12-08T21:43:07.974Z,1.60
2022-12-08T21:45:35.062Z,1.83
2022-12-08T21:48:07.276Z,2.03
2022-12-08T21:50:37.696Z,1.52
2022-12-08T21:53:04.566Z,1.80
2022-12-08T21:55:31.473Z,1.20
2022-12-08T21:58:00.780Z,1.83
2022-12-08T22:00:30.341Z,3.05
2022-12-08T22:02:58.100Z,1.70
2022-12-08T22:05:25.071Z,5.07
2022-12-08T22:07:51.881Z,3.07
2022-12-08T22:10:21.060Z,3.70
2022-12-08T22:12:47.989Z,1.98
2022-12-08T22:15:15.151Z,2.47
2022-12-08T22:17:43.659Z,2.58
2022-12-08T22:20:13.535Z,1.13
2022-12-08T22:22:40.884Z,1.30
2022-12-08T22:25:11.879Z,1.25
2022-12-08T22:27:40.579Z,1.42
2022-12-08T22:30:08.487Z,1.60
2022-12-08T22:32:35.754Z,1.13
2022-12-08T22:35:02.592Z,1.88
2022-12-08T22:37:29.307Z,0.95
2022-12-08T22:39:55.937Z,0.90
2022-12-08T22:42:22.677Z,1.67
2022-12-08T22:44:49.469Z,1.33
2022-12-08T22:47:16.215Z,1.23
2022-12-08T22:49:43.461Z,2.05
2022-12-08T22:52:10.259Z,1.08
2022-12-08T22:54:36.944Z,1.40
2022-12-08T22:57:03.820Z,0.80
2022-12-08T22:59:30.552Z,1.00
2022-12-08T23:01:57.305Z,1.10
2022-12-08T23:04:24.115Z,1.35
2022-12-08T23:06:50.839Z,1.00
2022-12-08T23:09:18.624Z,0.90
2022-12-08T23:11:45.547Z,2.05
2022-12-08T23:14:12.464Z,1.70
2022-12-08T23:16:39.340Z,1.80
2022-12-08T23:19:06.201Z,0.98
2022-12-08T23:21:32.959Z,1.10
2022-12-08T23:24:01.506Z,1.92
2022-12-08T23:26:31.672Z,1.10
2022-12-08T23:28:59.205Z,1.00
2022-12-08T23:31:26.712Z,1.30
2022-12-08T23:33:53.776Z,1.77
2022-12-08T23:36:23.112Z,1.85
2022-12-08T23:38:49.768Z,1.83
2022-12-08T23:41:16.784Z,0.88
2022-12-08T23:43:45.547Z,1.17
2022-12-08T23:46:12.652Z,0.80
2022-12-08T23:48:39.610Z,1.10
2022-12-08T23:51:06.832Z,4.78
2022-12-08T23:53:34.077Z,1.05
2022-12-08T23:56:02.770Z,1.42
2022-12-08T23:58:31.216Z,1.10
